sensor_id;sensor_type;location;lat;lon;timestamp;P1;durP1;ratioP1;P2;durP2;ratioP2
59105;SDS011;44891;50.204;8.132;2023-08-31T00:02:30;7.47;;;4.70;;
59105;SDS011;44891;50.204;8.132;2023-08-31T00:06:36;5.50;;;4.07;;
59105;SDS011;44891;50.204;8.132;2023-08-31T00:10:38;7.05;;;4.63;;
59105;SDS011;44891;50.204;8.132;2023-08-31T00:14:41;7.10;;;4.45;;
59105;SDS011;44891;50.204;8.132;2023-08-31T00:18:44;5.15;;;4.65;;
59105;SDS011;44891;50.204;8.132;2023-08-31T00:22:52;7.13;;;5.03;;
59105;SDS011;44891;50.204;8.132;2023-08-31T00:26:54;7.55;;;4.85;;
59105;SDS011;44891;50.204;8.132;2023-08-31T00:31:00;5.32;;;4.53;;
59105;SDS011;44891;50.204;8.132;2023-08-31T00:35:05;5.03;;;4.20;;
59105;SDS011;44891;50.204;8.132;2023-08-31T00:39:10;6.03;;;4.78;;
59105;SDS011;44891;50.204;8.132;2023-08-31T00:43:16;5.85;;;4.50;;
59105;SDS011;44891;50.204;8.132;2023-08-31T00:47:19;5.82;;;4.82;;
59105;SDS011;44891;50.204;8.132;2023-08-31T00:51:23;8.43;;;5.32;;
59105;SDS011;44891;50.204;8.132;2023-08-31T00:55:27;5.78;;;4.70;;
59105;SDS011;44891;50.204;8.132;2023-08-31T00:59:29;6.82;;;4.78;;
59105;SDS011;44891;50.204;8.132;2023-08-31T01:03:37;6.53;;;4.60;;
59105;SDS011;44891;50.204;8.132;2023-08-31T01:07:47;6.78;;;5.22;;
59105;SDS011;44891;50.204;8.132;2023-08-31T01:12:02;7.30;;;5.50;;
59105;SDS011;44891;50.204;8.132;2023-08-31T01:16:07;6.43;;;5.38;;
59105;SDS011;44891;50.204;8.132;2023-08-31T01:20:14;7.68;;;5.40;;
59105;SDS011;44891;50.204;8.132;2023-08-31T01:24:23;6.53;;;4.97;;
59105;SDS011;44891;50.204;8.132;2023-08-31T01:28:28;7.82;;;5.35;;
59105;SDS011;44891;50.204;8.132;2023-08-31T01:32:33;8.05;;;6.00;;
59105;SDS011;44891;50.204;8.132;2023-08-31T01:36:42;9.65;;;6.20;;
59105;SDS011;44891;50.204;8.132;2023-08-31T01:40:52;5.77;;;5.17;;
59105;SDS011;44891;50.204;8.132;2023-08-31T01:45:04;9.98;;;5.20;;
59105;SDS011;44891;50.204;8.132;2023-08-31T01:49:09;9.98;;;5.50;;
59105;SDS011;44891;50.204;8.132;2023-08-31T01:53:13;7.65;;;5.28;;
59105;SDS011;44891;50.204;8.132;2023-08-31T01:57:18;6.78;;;5.30;;
59105;SDS011;44891;50.204;8.132;2023-08-31T02:01:46;6.50;;;5.20;;
59105;SDS011;44891;50.204;8.132;2023-08-31T02:05:49;7.97;;;5.50;;
59105;SDS011;44891;50.204;8.132;2023-08-31T02:09:53;6.10;;;5.32;;
59105;SDS011;44891;50.204;8.132;2023-08-31T02:13:57;9.38;;;6.35;;
59105;SDS011;44891;50.204;8.132;2023-08-31T02:18:01;10.25;;;6.50;;
59105;SDS011;44891;50.204;8.132;2023-08-31T02:22:04;11.38;;;6.72;;
59105;SDS011;44891;50.204;8.132;2023-08-31T02:26:10;7.95;;;5.93;;
59105;SDS011;44891;50.204;8.132;2023-08-31T02:30:16;8.60;;;6.13;;
59105;SDS011;44891;50.204;8.132;2023-08-31T02:34:22;7.63;;;5.82;;
59105;SDS011;44891;50.204;8.132;2023-08-31T02:38:24;10.05;;;5.50;;
59105;SDS011;44891;50.204;8.132;2023-08-31T02:42:27;6.63;;;4.75;;
59105;SDS011;44891;50.204;8.132;2023-08-31T02:46:32;9.45;;;5.68;;
59105;SDS011;44891;50.204;8.132;2023-08-31T02:50:36;7.43;;;5.53;;
59105;SDS011;44891;50.204;8.132;2023-08-31T02:54:40;7.85;;;6.00;;
59105;SDS011;44891;50.204;8.132;2023-08-31T02:58:48;8.90;;;6.60;;
59105;SDS011;44891;50.204;8.132;2023-08-31T03:02:56;9.30;;;7.30;;
59105;SDS011;44891;50.204;8.132;2023-08-31T03:06:59;10.85;;;6.25;;
59105;SDS011;44891;50.204;8.132;2023-08-31T03:11:05;10.65;;;6.90;;
59105;SDS011;44891;50.204;8.132;2023-08-31T03:15:10;10.57;;;6.68;;
59105;SDS011;44891;50.204;8.132;2023-08-31T03:19:17;9.10;;;6.00;;
59105;SDS011;44891;50.204;8.132;2023-08-31T03:23:19;10.85;;;6.28;;
59105;SDS011;44891;50.204;8.132;2023-08-31T03:27:22;7.63;;;6.05;;
59105;SDS011;44891;50.204;8.132;2023-08-31T03:31:24;6.90;;;5.38;;
59105;SDS011;44891;50.204;8.132;2023-08-31T03:35:32;7.28;;;5.53;;
59105;SDS011;44891;50.204;8.132;2023-08-31T03:39:34;8.50;;;6.10;;
59105;SDS011;44891;50.204;8.132;2023-08-31T03:43:37;9.25;;;6.35;;
59105;SDS011;44891;50.204;8.132;2023-08-31T03:47:43;7.07;;;5.95;;
59105;SDS011;44891;50.204;8.132;2023-08-31T03:51:47;8.45;;;5.70;;
59105;SDS011;44891;50.204;8.132;2023-08-31T03:55:50;7.55;;;6.13;;
59105;SDS011;44891;50.204;8.132;2023-08-31T03:59:52;8.57;;;6.53;;
59105;SDS011;44891;50.204;8.132;2023-08-31T04:03:59;8.73;;;6.95;;
59105;SDS011;44891;50.204;8.132;2023-08-31T04:08:07;11.25;;;7.30;;
59105;SDS011;44891;50.204;8.132;2023-08-31T04:12:11;8.45;;;6.90;;
59105;SDS011;44891;50.204;8.132;2023-08-31T04:16:17;11.05;;;6.88;;
59105;SDS011;44891;50.204;8.132;2023-08-31T04:20:24;8.52;;;7.40;;
59105;SDS011;44891;50.204;8.132;2023-08-31T04:24:28;10.23;;;7.22;;
59105;SDS011;44891;50.204;8.132;2023-08-31T04:28:32;10.98;;;7.20;;
59105;SDS011;44891;50.204;8.132;2023-08-31T04:32:34;8.63;;;6.15;;
59105;SDS011;44891;50.204;8.132;2023-08-31T04:36:38;9.88;;;6.95;;
59105;SDS011;44891;50.204;8.132;2023-08-31T04:40:48;9.40;;;7.65;;
59105;SDS011;44891;50.204;8.132;2023-08-31T04:44:51;8.85;;;6.00;;
59105;SDS011;44891;50.204;8.132;2023-08-31T04:48:57;8.30;;;5.93;;
59105;SDS011;44891;50.204;8.132;2023-08-31T04:53:00;10.15;;;6.57;;
59105;SDS011;44891;50.204;8.132;2023-08-31T04:57:06;9.20;;;5.80;;
59105;SDS011;44891;50.204;8.132;2023-08-31T05:01:08;10.68;;;6.80;;
59105;SDS011;44891;50.204;8.132;2023-08-31T05:05:16;8.60;;;6.75;;
59105;SDS011;44891;50.204;8.132;2023-08-31T05:09:19;8.52;;;6.47;;
59105;SDS011;44891;50.204;8.132;2023-08-31T05:13:23;8.80;;;6.40;;
59105;SDS011;44891;50.204;8.132;2023-08-31T05:17:25;9.00;;;6.70;;
59105;SDS011;44891;50.204;8.132;2023-08-31T05:21:32;10.43;;;6.97;;
59105;SDS011;44891;50.204;8.132;2023-08-31T05:25:41;8.43;;;6.18;;
59105;SDS011;44891;50.204;8.132;2023-08-31T05:29:45;7.72;;;6.05;;
59105;SDS011;44891;50.204;8.132;2023-08-31T05:33:50;7.70;;;6.43;;
59105;SDS011;44891;50.204;8.132;2023-08-31T05:37:55;7.53;;;5.85;;
59105;SDS011;44891;50.204;8.132;2023-08-31T05:41:59;7.88;;;5.25;;
59105;SDS011;44891;50.204;8.132;2023-08-31T05:46:04;8.52;;;5.53;;
59105;SDS011;44891;50.204;8.132;2023-08-31T05:50:06;6.25;;;4.72;;
59105;SDS011;44891;50.204;8.132;2023-08-31T05:54:09;8.15;;;4.93;;
59105;SDS011;44891;50.204;8.132;2023-08-31T05:58:13;8.45;;;5.30;;
59105;SDS011;44891;50.204;8.132;2023-08-31T06:02:18;7.88;;;4.90;;
59105;SDS011;44891;50.204;8.132;2023-08-31T06:06:26;8.50;;;4.88;;
59105;SDS011;44891;50.204;8.132;2023-08-31T06:10:28;6.68;;;4.50;;
59105;SDS011;44891;50.204;8.132;2023-08-31T06:14:34;8.18;;;4.70;;
59105;SDS011;44891;50.204;8.132;2023-08-31T06:18:40;7.18;;;4.25;;
59105;SDS011;44891;50.204;8.132;2023-08-31T06:22:46;7.63;;;4.45;;
59105;SDS011;44891;50.204;8.132;2023-08-31T06:26:50;7.30;;;4.70;;
59105;SDS011;44891;50.204;8.132;2023-08-31T06:30:52;8.77;;;4.88;;
59105;SDS011;44891;50.204;8.132;2023-08-31T06:34:56;9.77;;;4.50;;
59105;SDS011;44891;50.204;8.132;2023-08-31T06:38:59;6.90;;;4.35;;
59105;SDS011;44891;50.204;8.132;2023-08-31T06:43:01;8.52;;;4.65;;
59105;SDS011;44891;50.204;8.132;2023-08-31T06:47:04;7.22;;;4.10;;
59105;SDS011;44891;50.204;8.132;2023-08-31T06:51:08;6.88;;;4.28;;
59105;SDS011;44891;50.204;8.132;2023-08-31T06:55:10;9.50;;;4.30;;
59105;SDS011;44891;50.204;8.132;2023-08-31T06:59:15;7.68;;;3.70;;
59105;SDS011;44891;50.204;8.132;2023-08-31T07:03:18;6.70;;;3.88;;
59105;SDS011;44891;50.204;8.132;2023-08-31T07:07:22;5.15;;;3.22;;
59105;SDS011;44891;50.204;8.132;2023-08-31T07:11:25;7.32;;;3.85;;
59105;SDS011;44891;50.204;8.132;2023-08-31T07:15:30;8.35;;;3.70;;
59105;SDS011;44891;50.204;8.132;2023-08-31T07:19:36;6.38;;;3.65;;
59105;SDS011;44891;50.204;8.132;2023-08-31T07:23:40;6.07;;;3.50;;
59105;SDS011;44891;50.204;8.132;2023-08-31T07:27:43;7.32;;;3.47;;
59105;SDS011;44891;50.204;8.132;2023-08-31T07:31:49;4.35;;;2.83;;
59105;SDS011;44891;50.204;8.132;2023-08-31T07:35:55;4.80;;;3.13;;
59105;SDS011;44891;50.204;8.132;2023-08-31T07:40:02;7.38;;;3.85;;
59105;SDS011;44891;50.204;8.132;2023-08-31T07:44:09;8.93;;;3.75;;
59105;SDS011;44891;50.204;8.132;2023-08-31T07:48:13;5.85;;;3.50;;
59105;SDS011;44891;50.204;8.132;2023-08-31T07:52:16;9.95;;;4.07;;
59105;SDS011;44891;50.204;8.132;2023-08-31T07:56:22;8.93;;;3.33;;
59105;SDS011;44891;50.204;8.132;2023-08-31T08:00:25;8.32;;;3.83;;
59105;SDS011;44891;50.204;8.132;2023-08-31T08:04:28;6.40;;;4.40;;
59105;SDS011;44891;50.204;8.132;2023-08-31T08:08:32;6.43;;;3.92;;
59105;SDS011;44891;50.204;8.132;2023-08-31T08:12:42;7.28;;;3.50;;
59105;SDS011;44891;50.204;8.132;2023-08-31T08:16:46;6.95;;;3.60;;
59105;SDS011;44891;50.204;8.132;2023-08-31T08:20:48;6.63;;;3.42;;
59105;SDS011;44891;50.204;8.132;2023-08-31T08:24:52;5.57;;;3.78;;
59105;SDS011;44891;50.204;8.132;2023-08-31T08:28:56;5.90;;;3.67;;
59105;SDS011;44891;50.204;8.132;2023-08-31T08:33:00;3.92;;;3.42;;
59105;SDS011;44891;50.204;8.132;2023-08-31T08:37:03;7.55;;;3.65;;
59105;SDS011;44891;50.204;8.132;2023-08-31T08:41:06;6.55;;;3.65;;
59105;SDS011;44891;50.204;8.132;2023-08-31T08:45:12;4.95;;;3.72;;
59105;SDS011;44891;50.204;8.132;2023-08-31T08:49:17;5.80;;;3.50;;
59105;SDS011;44891;50.204;8.132;2023-08-31T08:53:20;5.07;;;3.05;;
59105;SDS011;44891;50.204;8.132;2023-08-31T08:57:23;8.13;;;3.65;;
59105;SDS011;44891;50.204;8.132;2023-08-31T09:01:27;6.13;;;3.53;;
59105;SDS011;44891;50.204;8.132;2023-08-31T09:05:30;4.68;;;3.20;;
59105;SDS011;44891;50.204;8.132;2023-08-31T09:09:36;7.95;;;3.85;;
59105;SDS011;44891;50.204;8.132;2023-08-31T09:13:51;6.57;;;3.40;;
59105;SDS011;44891;50.204;8.132;2023-08-31T09:17:55;9.98;;;4.50;;
59105;SDS011;44891;50.204;8.132;2023-08-31T09:21:57;13.20;;;4.07;;
59105;SDS011;44891;50.204;8.132;2023-08-31T09:26:02;7.88;;;3.47;;
59105;SDS011;44891;50.204;8.132;2023-08-31T09:30:07;15.40;;;4.45;;
59105;SDS011;44891;50.204;8.132;2023-08-31T09:34:14;5.75;;;3.60;;
59105;SDS011;44891;50.204;8.132;2023-08-31T09:38:18;6.28;;;3.30;;
59105;SDS011;44891;50.204;8.132;2023-08-31T09:42:21;6.68;;;3.50;;
59105;SDS011;44891;50.204;8.132;2023-08-31T09:46:23;6.35;;;3.80;;
59105;SDS011;44891;50.204;8.132;2023-08-31T09:50:27;8.15;;;3.58;;
59105;SDS011;44891;50.204;8.132;2023-08-31T09:54:31;7.30;;;3.15;;
59105;SDS011;44891;50.204;8.132;2023-08-31T09:58:37;5.43;;;3.15;;
59105;SDS011;44891;50.204;8.132;2023-08-31T10:02:40;9.13;;;3.28;;
59105;SDS011;44891;50.204;8.132;2023-08-31T10:06:44;6.55;;;3.00;;
59105;SDS011;44891;50.204;8.132;2023-08-31T10:10:47;6.47;;;2.80;;
59105;SDS011;44891;50.204;8.132;2023-08-31T10:14:51;5.40;;;2.83;;
59105;SDS011;44891;50.204;8.132;2023-08-31T10:18:56;5.60;;;2.65;;
59105;SDS011;44891;50.204;8.132;2023-08-31T10:23:00;6.60;;;3.00;;
59105;SDS011;44891;50.204;8.132;2023-08-31T10:27:17;6.13;;;2.65;;
59105;SDS011;44891;50.204;8.132;2023-08-31T10:31:20;5.78;;;3.00;;
59105;SDS011;44891;50.204;8.132;2023-08-31T10:35:24;5.53;;;2.60;;
59105;SDS011;44891;50.204;8.132;2023-08-31T10:39:47;4.28;;;2.85;;
59105;SDS011;44891;50.204;8.132;2023-08-31T10:43:51;6.15;;;2.80;;
59105;SDS011;44891;50.204;8.132;2023-08-31T10:47:54;4.32;;;2.42;;
59105;SDS011;44891;50.204;8.132;2023-08-31T10:52:15;3.53;;;2.50;;
59105;SDS011;44891;50.204;8.132;2023-08-31T10:56:21;4.68;;;2.47;;
59105;SDS011;44891;50.204;8.132;2023-08-31T11:04:53;5.53;;;2.65;;
59105;SDS011;44891;50.204;8.132;2023-08-31T11:08:56;5.45;;;2.53;;
59105;SDS011;44891;50.204;8.132;2023-08-31T11:13:00;7.20;;;2.53;;
59105;SDS011;44891;50.204;8.132;2023-08-31T11:17:03;5.15;;;2.30;;
59105;SDS011;44891;50.204;8.132;2023-08-31T11:21:09;3.63;;;2.47;;
59105;SDS011;44891;50.204;8.132;2023-08-31T11:25:15;4.38;;;2.45;;
59105;SDS011;44891;50.204;8.132;2023-08-31T11:29:21;5.35;;;2.50;;
59105;SDS011;44891;50.204;8.132;2023-08-31T11:33:23;6.95;;;2.65;;
59105;SDS011;44891;50.204;8.132;2023-08-31T11:37:33;4.60;;;2.42;;
59105;SDS011;44891;50.204;8.132;2023-08-31T11:41:37;4.30;;;2.38;;
59105;SDS011;44891;50.204;8.132;2023-08-31T11:45:44;3.88;;;2.55;;
59105;SDS011;44891;50.204;8.132;2023-08-31T11:49:48;7.15;;;2.60;;
59105;SDS011;44891;50.204;8.132;2023-08-31T11:53:55;4.40;;;2.40;;
59105;SDS011;44891;50.204;8.132;2023-08-31T11:58:00;3.25;;;2.30;;
59105;SDS011;44891;50.204;8.132;2023-08-31T12:02:08;4.97;;;2.60;;
59105;SDS011;44891;50.204;8.132;2023-08-31T12:06:10;6.15;;;2.58;;
59105;SDS011;44891;50.204;8.132;2023-08-31T12:10:14;4.00;;;2.40;;
59105;SDS011;44891;50.204;8.132;2023-08-31T12:14:20;4.00;;;2.30;;
59105;SDS011;44891;50.204;8.132;2023-08-31T12:18:28;8.02;;;2.25;;
59105;SDS011;44891;50.204;8.132;2023-08-31T12:22:34;3.92;;;2.13;;
59105;SDS011;44891;50.204;8.132;2023-08-31T12:26:42;3.67;;;2.40;;
59105;SDS011;44891;50.204;8.132;2023-08-31T12:30:59;5.95;;;2.20;;
59105;SDS011;44891;50.204;8.132;2023-08-31T12:35:03;5.60;;;2.30;;
59105;SDS011;44891;50.204;8.132;2023-08-31T12:39:10;3.72;;;2.20;;
59105;SDS011;44891;50.204;8.132;2023-08-31T12:43:15;3.97;;;1.88;;
59105;SDS011;44891;50.204;8.132;2023-08-31T12:47:18;3.63;;;1.88;;
59105;SDS011;44891;50.204;8.132;2023-08-31T12:51:22;4.00;;;1.95;;
59105;SDS011;44891;50.204;8.132;2023-08-31T12:55:25;5.72;;;4.20;;
59105;SDS011;44891;50.204;8.132;2023-08-31T12:59:31;2.85;;;1.90;;
59105;SDS011;44891;50.204;8.132;2023-08-31T13:03:33;4.90;;;2.10;;
59105;SDS011;44891;50.204;8.132;2023-08-31T13:07:40;4.65;;;2.30;;
59105;SDS011;44891;50.204;8.132;2023-08-31T13:11:43;4.43;;;1.98;;
59105;SDS011;44891;50.204;8.132;2023-08-31T13:15:45;2.80;;;1.98;;
59105;SDS011;44891;50.204;8.132;2023-08-31T13:19:48;4.25;;;2.35;;
59105;SDS011;44891;50.204;8.132;2023-08-31T13:23:59;4.78;;;2.00;;
59105;SDS011;44891;50.204;8.132;2023-08-31T13:28:02;7.18;;;2.13;;
59105;SDS011;44891;50.204;8.132;2023-08-31T13:32:07;4.60;;;1.95;;
59105;SDS011;44891;50.204;8.132;2023-08-31T13:36:09;3.63;;;1.80;;
59105;SDS011;44891;50.204;8.132;2023-08-31T13:40:14;3.20;;;2.03;;
59105;SDS011;44891;50.204;8.132;2023-08-31T13:44:16;3.33;;;2.10;;
59105;SDS011;44891;50.204;8.132;2023-08-31T13:48:19;4.10;;;1.92;;
59105;SDS011;44891;50.204;8.132;2023-08-31T13:52:23;3.33;;;2.00;;
59105;SDS011;44891;50.204;8.132;2023-08-31T13:56:27;3.72;;;2.00;;
59105;SDS011;44891;50.204;8.132;2023-08-31T14:00:29;3.38;;;2.10;;
59105;SDS011;44891;50.204;8.132;2023-08-31T14:04:31;3.75;;;2.00;;
59105;SDS011;44891;50.204;8.132;2023-08-31T14:08:34;4.35;;;2.70;;
59105;SDS011;44891;50.204;8.132;2023-08-31T14:12:37;4.50;;;1.90;;
59105;SDS011;44891;50.204;8.132;2023-08-31T14:16:41;4.07;;;2.15;;
59105;SDS011;44891;50.204;8.132;2023-08-31T14:20:43;4.05;;;2.03;;
59105;SDS011;44891;50.204;8.132;2023-08-31T14:24:46;4.38;;;2.35;;
59105;SDS011;44891;50.204;8.132;2023-08-31T14:28:50;4.40;;;2.10;;
59105;SDS011;44891;50.204;8.132;2023-08-31T14:32:53;7.18;;;2.47;;
59105;SDS011;44891;50.204;8.132;2023-08-31T14:36:55;5.47;;;2.00;;
59105;SDS011;44891;50.204;8.132;2023-08-31T14:41:01;5.85;;;2.50;;
59105;SDS011;44891;50.204;8.132;2023-08-31T14:45:06;5.03;;;2.08;;
59105;SDS011;44891;50.204;8.132;2023-08-31T14:49:09;5.32;;;2.33;;
59105;SDS011;44891;50.204;8.132;2023-08-31T14:53:12;3.40;;;2.00;;
59105;SDS011;44891;50.204;8.132;2023-08-31T14:57:15;6.30;;;2.45;;
59105;SDS011;44891;50.204;8.132;2023-08-31T15:01:24;3.60;;;1.90;;
59105;SDS011;44891;50.204;8.132;2023-08-31T15:05:26;4.82;;;1.95;;
59105;SDS011;44891;50.204;8.132;2023-08-31T15:09:33;5.78;;;2.33;;
59105;SDS011;44891;50.204;8.132;2023-08-31T15:13:37;5.20;;;2.10;;
59105;SDS011;44891;50.204;8.132;2023-08-31T15:17:43;4.47;;;2.20;;
59105;SDS011;44891;50.204;8.132;2023-08-31T15:21:46;3.75;;;2.10;;
59105;SDS011;44891;50.204;8.132;2023-08-31T15:25:48;4.53;;;2.30;;
59105;SDS011;44891;50.204;8.132;2023-08-31T15:29:51;5.25;;;2.20;;
59105;SDS011;44891;50.204;8.132;2023-08-31T15:33:55;4.55;;;2.42;;
59105;SDS011;44891;50.204;8.132;2023-08-31T15:37:58;5.93;;;2.15;;
59105;SDS011;44891;50.204;8.132;2023-08-31T15:42:01;6.15;;;2.20;;
59105;SDS011;44891;50.204;8.132;2023-08-31T15:46:04;6.38;;;2.40;;
59105;SDS011;44891;50.204;8.132;2023-08-31T15:50:08;5.10;;;2.30;;
59105;SDS011;44891;50.204;8.132;2023-08-31T15:54:10;5.25;;;2.22;;
59105;SDS011;44891;50.204;8.132;2023-08-31T15:58:13;4.15;;;2.30;;
59105;SDS011;44891;50.204;8.132;2023-08-31T16:02:15;6.55;;;2.30;;
59105;SDS011;44891;50.204;8.132;2023-08-31T16:06:19;5.45;;;2.20;;
59105;SDS011;44891;50.204;8.132;2023-08-31T16:10:21;6.88;;;2.35;;
59105;SDS011;44891;50.204;8.132;2023-08-31T16:14:24;7.93;;;2.78;;
59105;SDS011;44891;50.204;8.132;2023-08-31T16:18:26;6.13;;;2.53;;
59105;SDS011;44891;50.204;8.132;2023-08-31T16:22:30;3.42;;;2.22;;
59105;SDS011;44891;50.204;8.132;2023-08-31T16:26:32;5.43;;;2.65;;
59105;SDS011;44891;50.204;8.132;2023-08-31T16:30:35;6.03;;;2.60;;
59105;SDS011;44891;50.204;8.132;2023-08-31T16:34:38;5.40;;;2.40;;
59105;SDS011;44891;50.204;8.132;2023-08-31T16:38:57;5.88;;;2.70;;
59105;SDS011;44891;50.204;8.132;2023-08-31T16:42:59;4.82;;;2.40;;
59105;SDS011;44891;50.204;8.132;2023-08-31T16:47:02;6.47;;;2.47;;
59105;SDS011;44891;50.204;8.132;2023-08-31T16:51:06;6.15;;;2.60;;
59105;SDS011;44891;50.204;8.132;2023-08-31T16:55:11;5.80;;;2.65;;
59105;SDS011;44891;50.204;8.132;2023-08-31T16:59:19;3.85;;;2.50;;
59105;SDS011;44891;50.204;8.132;2023-08-31T17:03:25;5.43;;;2.65;;
59105;SDS011;44891;50.204;8.132;2023-08-31T17:07:27;3.05;;;2.17;;
59105;SDS011;44891;50.204;8.132;2023-08-31T17:11:35;5.22;;;2.85;;
59105;SDS011;44891;50.204;8.132;2023-08-31T17:15:41;3.28;;;2.42;;
59105;SDS011;44891;50.204;8.132;2023-08-31T17:19:46;6.18;;;3.15;;
59105;SDS011;44891;50.204;8.132;2023-08-31T17:23:52;5.88;;;2.83;;
59105;SDS011;44891;50.204;8.132;2023-08-31T17:27:57;6.93;;;3.10;;
59105;SDS011;44891;50.204;8.132;2023-08-31T17:32:04;7.57;;;2.72;;
59105;SDS011;44891;50.204;8.132;2023-08-31T17:36:09;6.60;;;3.25;;
59105;SDS011;44891;50.204;8.132;2023-08-31T17:40:14;4.43;;;2.88;;
59105;SDS011;44891;50.204;8.132;2023-08-31T17:44:20;6.13;;;3.13;;
59105;SDS011;44891;50.204;8.132;2023-08-31T17:48:26;6.28;;;2.80;;
59105;SDS011;44891;50.204;8.132;2023-08-31T17:52:28;8.48;;;3.60;;
59105;SDS011;44891;50.204;8.132;2023-08-31T17:56:35;6.18;;;3.00;;
59105;SDS011;44891;50.204;8.132;2023-08-31T18:00:41;6.38;;;3.17;;
59105;SDS011;44891;50.204;8.132;2023-08-31T18:04:46;7.38;;;3.50;;
59105;SDS011;44891;50.204;8.132;2023-08-31T18:08:51;7.72;;;3.53;;
59105;SDS011;44891;50.204;8.132;2023-08-31T18:12:57;7.22;;;3.50;;
59105;SDS011;44891;50.204;8.132;2023-08-31T18:17:01;5.30;;;3.70;;
59105;SDS011;44891;50.204;8.132;2023-08-31T18:21:04;9.30;;;3.40;;
59105;SDS011;44891;50.204;8.132;2023-08-31T18:25:07;7.03;;;3.13;;
59105;SDS011;44891;50.204;8.132;2023-08-31T18:29:12;8.25;;;3.55;;
59105;SDS011;44891;50.204;8.132;2023-08-31T18:33:16;7.28;;;3.42;;
59105;SDS011;44891;50.204;8.132;2023-08-31T18:37:22;7.47;;;3.40;;
59105;SDS011;44891;50.204;8.132;2023-08-31T18:41:30;9.68;;;3.42;;
59105;SDS011;44891;50.204;8.132;2023-08-31T18:45:33;6.15;;;3.38;;
59105;SDS011;44891;50.204;8.132;2023-08-31T18:49:49;5.78;;;3.30;;
59105;SDS011;44891;50.204;8.132;2023-08-31T18:53:51;6.35;;;3.33;;
59105;SDS011;44891;50.204;8.132;2023-08-31T18:57:54;6.68;;;3.85;;
59105;SDS011;44891;50.204;8.132;2023-08-31T19:02:00;7.13;;;3.60;;
59105;SDS011;44891;50.204;8.132;2023-08-31T19:06:06;5.28;;;3.30;;
59105;SDS011;44891;50.204;8.132;2023-08-31T19:10:09;8.60;;;3.80;;
59105;SDS011;44891;50.204;8.132;2023-08-31T19:14:16;9.23;;;3.92;;
59105;SDS011;44891;50.204;8.132;2023-08-31T19:18:22;5.57;;;3.40;;
59105;SDS011;44891;50.204;8.132;2023-08-31T19:22:30;6.95;;;3.97;;
59105;SDS011;44891;50.204;8.132;2023-08-31T19:26:35;8.32;;;3.83;;
59105;SDS011;44891;50.204;8.132;2023-08-31T19:30:43;7.32;;;3.85;;
59105;SDS011;44891;50.204;8.132;2023-08-31T19:34:48;8.05;;;3.60;;
59105;SDS011;44891;50.204;8.132;2023-08-31T19:39:01;7.28;;;4.22;;
59105;SDS011;44891;50.204;8.132;2023-08-31T19:43:03;7.25;;;3.85;;
59105;SDS011;44891;50.204;8.132;2023-08-31T19:47:12;7.88;;;3.90;;
59105;SDS011;44891;50.204;8.132;2023-08-31T19:51:14;7.70;;;3.63;;
59105;SDS011;44891;50.204;8.132;2023-08-31T19:55:18;6.88;;;3.90;;
59105;SDS011;44891;50.204;8.132;2023-08-31T19:59:23;6.85;;;3.85;;
59105;SDS011;44891;50.204;8.132;2023-08-31T20:03:31;6.93;;;3.45;;
59105;SDS011;44891;50.204;8.132;2023-08-31T20:07:40;7.05;;;3.47;;
59105;SDS011;44891;50.204;8.132;2023-08-31T20:11:44;8.00;;;3.33;;
59105;SDS011;44891;50.204;8.132;2023-08-31T20:15:48;5.97;;;3.55;;
59105;SDS011;44891;50.204;8.132;2023-08-31T20:19:54;7.10;;;3.60;;
59105;SDS011;44891;50.204;8.132;2023-08-31T20:23:58;6.88;;;3.40;;
59105;SDS011;44891;50.204;8.132;2023-08-31T20:28:07;6.78;;;3.50;;
59105;SDS011;44891;50.204;8.132;2023-08-31T20:32:14;6.68;;;3.60;;
59105;SDS011;44891;50.204;8.132;2023-08-31T20:36:20;8.00;;;3.90;;
59105;SDS011;44891;50.204;8.132;2023-08-31T20:40:25;5.25;;;3.40;;
59105;SDS011;44891;50.204;8.132;2023-08-31T20:44:33;8.70;;;4.28;;
59105;SDS011;44891;50.204;8.132;2023-08-31T20:48:35;8.85;;;3.83;;
59105;SDS011;44891;50.204;8.132;2023-08-31T20:52:41;6.88;;;3.80;;
59105;SDS011;44891;50.204;8.132;2023-08-31T20:56:47;5.07;;;3.60;;
59105;SDS011;44891;50.204;8.132;2023-08-31T21:00:55;9.32;;;3.90;;
59105;SDS011;44891;50.204;8.132;2023-08-31T21:04:57;6.95;;;3.75;;
59105;SDS011;44891;50.204;8.132;2023-08-31T21:09:02;6.25;;;3.60;;
59105;SDS011;44891;50.204;8.132;2023-08-31T21:13:08;7.90;;;4.22;;
59105;SDS011;44891;50.204;8.132;2023-08-31T21:17:12;7.95;;;4.43;;
59105;SDS011;44891;50.204;8.132;2023-08-31T21:21:20;8.60;;;4.00;;
59105;SDS011;44891;50.204;8.132;2023-08-31T21:25:24;9.23;;;4.10;;
59105;SDS011;44891;50.204;8.132;2023-08-31T21:29:29;7.18;;;3.92;;
59105;SDS011;44891;50.204;8.132;2023-08-31T21:33:36;7.28;;;4.18;;
59105;SDS011;44891;50.204;8.132;2023-08-31T21:37:41;8.93;;;4.72;;
59105;SDS011;44891;50.204;8.132;2023-08-31T21:41:47;8.55;;;4.03;;
59105;SDS011;44891;50.204;8.132;2023-08-31T21:45:52;7.63;;;3.95;;
59105;SDS011;44891;50.204;8.132;2023-08-31T21:49:56;6.18;;;3.97;;
59105;SDS011;44891;50.204;8.132;2023-08-31T21:54:01;7.63;;;3.75;;
59105;SDS011;44891;50.204;8.132;2023-08-31T21:58:05;10.15;;;3.83;;
59105;SDS011;44891;50.204;8.132;2023-08-31T22:02:08;6.07;;;3.83;;
59105;SDS011;44891;50.204;8.132;2023-08-31T22:06:12;10.35;;;4.30;;
59105;SDS011;44891;50.204;8.132;2023-08-31T22:10:18;8.05;;;3.92;;
59105;SDS011;44891;50.204;8.132;2023-08-31T22:14:23;8.50;;;4.00;;
59105;SDS011;44891;50.204;8.132;2023-08-31T22:18:28;7.20;;;4.00;;
59105;SDS011;44891;50.204;8.132;2023-08-31T22:22:33;6.00;;;3.80;;
59105;SDS011;44891;50.204;8.132;2023-08-31T22:26:36;8.98;;;4.35;;
59105;SDS011;44891;50.204;8.132;2023-08-31T22:30:39;8.65;;;4.30;;
59105;SDS011;44891;50.204;8.132;2023-08-31T22:34:43;6.70;;;4.10;;
59105;SDS011;44891;50.204;8.132;2023-08-31T22:38:47;7.68;;;4.22;;
59105;SDS011;44891;50.204;8.132;2023-08-31T22:42:50;8.95;;;4.35;;
59105;SDS011;44891;50.204;8.132;2023-08-31T22:46:58;6.70;;;3.85;;
59105;SDS011;44891;50.204;8.132;2023-08-31T22:51:01;8.13;;;4.40;;
59105;SDS011;44891;50.204;8.132;2023-08-31T22:55:10;9.10;;;4.63;;
59105;SDS011;44891;50.204;8.132;2023-08-31T22:59:18;6.38;;;4.32;;
59105;SDS011;44891;50.204;8.132;2023-08-31T23:03:23;8.48;;;4.95;;
59105;SDS011;44891;50.204;8.132;2023-08-31T23:07:25;9.63;;;4.65;;
59105;SDS011;44891;50.204;8.132;2023-08-31T23:11:33;6.97;;;5.07;;
59105;SDS011;44891;50.204;8.132;2023-08-31T23:15:35;8.10;;;4.80;;
59105;SDS011;44891;50.204;8.132;2023-08-31T23:19:40;7.95;;;4.53;;
59105;SDS011;44891;50.204;8.132;2023-08-31T23:23:44;6.88;;;4.55;;
59105;SDS011;44891;50.204;8.132;2023-08-31T23:27:50;9.13;;;4.80;;
59105;SDS011;44891;50.204;8.132;2023-08-31T23:31:57;10.00;;;4.43;;
59105;SDS011;44891;50.204;8.132;2023-08-31T23:36:00;7.50;;;4.50;;
59105;SDS011;44891;50.204;8.132;2023-08-31T23:40:04;7.18;;;5.00;;
59105;SDS011;44891;50.204;8.132;2023-08-31T23:44:17;9.73;;;5.30;;
59105;SDS011;44891;50.204;8.132;2023-08-31T23:48:20;9.10;;;5.45;;
59105;SDS011;44891;50.204;8.132;2023-08-31T23:52:26;10.35;;;6.47;;
59105;SDS011;44891;50.204;8.132;2023-08-31T23:56:31;12.52;;;7.00;;
